Spofford, New Hampshire
Current Conditions -  °F | °C
As of 9:55 AM on Wednesday 22 Oct 2014 (Local Time) from KEEN Reporting Station
Overcast Overcast  
Wind Chill: 52°   Ceiling: 1300
Heat Index: 52°   Visibility: 10mi
Dew Point: 39°   Wind: 10mph
Humidity: 62%   Direction: 40°NE
Pressure: 30.09"   Gusts: 21mph
Location:  42.91°N, 72.42°W
Report Text: KEEN 221355Z AUTO 04009G18KT 10SM OVC013 11/04 A3009 RMK AO1
Loading
Personal Weather Stations






























Interactive Weather Map
Tropical Storm Tracking
New forecast layout! Learn more

10-Day Weather Forecast

Advertisements
Track Severe Weather on mobile